sensor_id;sensor_type;location;lat;lon;timestamp;P1;durP1;ratioP1;P2;durP2;ratioP2
64907;SDS011;69061;52.236;5.188;2023-08-20T00:01:39;15.70;;;5.45;;
64907;SDS011;69061;52.236;5.188;2023-08-20T00:04:06;15.93;;;4.97;;
64907;SDS011;69061;52.236;5.188;2023-08-20T00:06:34;13.23;;;5.35;;
64907;SDS011;69061;52.236;5.188;2023-08-20T00:09:02;11.68;;;5.93;;
64907;SDS011;69061;52.236;5.188;2023-08-20T00:11:31;11.18;;;4.97;;
64907;SDS011;69061;52.236;5.188;2023-08-20T00:13:59;11.75;;;5.28;;
64907;SDS011;69061;52.236;5.188;2023-08-20T00:16:26;12.45;;;4.97;;
64907;SDS011;69061;52.236;5.188;2023-08-20T00:18:54;16.98;;;5.85;;
64907;SDS011;69061;52.236;5.188;2023-08-20T00:21:21;10.30;;;5.45;;
64907;SDS011;69061;52.236;5.188;2023-08-20T00:23:50;15.23;;;6.05;;
64907;SDS011;69061;52.236;5.188;2023-08-20T00:26:17;11.35;;;5.68;;
64907;SDS011;69061;52.236;5.188;2023-08-20T00:28:44;12.30;;;5.07;;
64907;SDS011;69061;52.236;5.188;2023-08-20T00:31:12;15.85;;;5.25;;
64907;SDS011;69061;52.236;5.188;2023-08-20T00:33:39;17.10;;;5.60;;
64907;SDS011;69061;52.236;5.188;2023-08-20T00:36:06;12.40;;;4.85;;
64907;SDS011;69061;52.236;5.188;2023-08-20T00:38:33;15.13;;;5.32;;
64907;SDS011;69061;52.236;5.188;2023-08-20T00:41:00;13.93;;;4.50;;
64907;SDS011;69061;52.236;5.188;2023-08-20T00:43:26;16.08;;;5.72;;
64907;SDS011;69061;52.236;5.188;2023-08-20T00:45:53;12.82;;;5.30;;
64907;SDS011;69061;52.236;5.188;2023-08-20T00:48:23;15.07;;;5.55;;
64907;SDS011;69061;52.236;5.188;2023-08-20T00:50:51;15.05;;;4.72;;
64907;SDS011;69061;52.236;5.188;2023-08-20T00:53:18;15.48;;;4.55;;
64907;SDS011;69061;52.236;5.188;2023-08-20T00:55:45;13.63;;;5.30;;
64907;SDS011;69061;52.236;5.188;2023-08-20T00:58:12;11.93;;;4.90;;
64907;SDS011;69061;52.236;5.188;2023-08-20T01:00:40;9.93;;;4.90;;
64907;SDS011;69061;52.236;5.188;2023-08-20T01:03:07;13.65;;;5.18;;
64907;SDS011;69061;52.236;5.188;2023-08-20T01:05:37;11.85;;;5.18;;
64907;SDS011;69061;52.236;5.188;2023-08-20T01:08:13;13.98;;;5.20;;
64907;SDS011;69061;52.236;5.188;2023-08-20T01:10:52;7.18;;;4.13;;
64907;SDS011;69061;52.236;5.188;2023-08-20T01:13:24;12.55;;;4.40;;
64907;SDS011;69061;52.236;5.188;2023-08-20T01:15:50;14.32;;;4.90;;
64907;SDS011;69061;52.236;5.188;2023-08-20T01:18:17;14.32;;;5.47;;
64907;SDS011;69061;52.236;5.188;2023-08-20T01:20:47;10.25;;;4.55;;
64907;SDS011;69061;52.236;5.188;2023-08-20T01:23:44;16.48;;;4.93;;
64907;SDS011;69061;52.236;5.188;2023-08-20T01:26:35;15.18;;;4.70;;
64907;SDS011;69061;52.236;5.188;2023-08-20T01:29:16;17.63;;;5.00;;
64907;SDS011;69061;52.236;5.188;2023-08-20T01:31:43;12.65;;;4.80;;
64907;SDS011;69061;52.236;5.188;2023-08-20T01:34:10;14.45;;;4.50;;
64907;SDS011;69061;52.236;5.188;2023-08-20T01:36:38;16.23;;;4.60;;
64907;SDS011;69061;52.236;5.188;2023-08-20T01:39:05;12.32;;;4.85;;
64907;SDS011;69061;52.236;5.188;2023-08-20T01:41:33;13.77;;;5.03;;
64907;SDS011;69061;52.236;5.188;2023-08-20T01:43:59;13.48;;;5.30;;
64907;SDS011;69061;52.236;5.188;2023-08-20T01:46:28;11.90;;;4.32;;
64907;SDS011;69061;52.236;5.188;2023-08-20T01:48:54;12.43;;;4.82;;
64907;SDS011;69061;52.236;5.188;2023-08-20T01:51:21;12.27;;;4.68;;
64907;SDS011;69061;52.236;5.188;2023-08-20T01:53:48;13.85;;;5.20;;
64907;SDS011;69061;52.236;5.188;2023-08-20T01:56:15;15.68;;;4.28;;
64907;SDS011;69061;52.236;5.188;2023-08-20T01:58:42;14.65;;;5.05;;
64907;SDS011;69061;52.236;5.188;2023-08-20T02:01:08;15.23;;;5.88;;
64907;SDS011;69061;52.236;5.188;2023-08-20T02:03:37;13.88;;;4.82;;
64907;SDS011;69061;52.236;5.188;2023-08-20T02:06:03;10.60;;;4.32;;
64907;SDS011;69061;52.236;5.188;2023-08-20T02:08:30;15.60;;;4.75;;
64907;SDS011;69061;52.236;5.188;2023-08-20T02:11:00;13.77;;;5.53;;
64907;SDS011;69061;52.236;5.188;2023-08-20T02:13:28;14.00;;;4.97;;
64907;SDS011;69061;52.236;5.188;2023-08-20T02:15:59;12.05;;;5.40;;
64907;SDS011;69061;52.236;5.188;2023-08-20T02:18:27;14.82;;;5.85;;
64907;SDS011;69061;52.236;5.188;2023-08-20T02:20:59;21.52;;;5.80;;
64907;SDS011;69061;52.236;5.188;2023-08-20T02:23:27;17.10;;;5.93;;
64907;SDS011;69061;52.236;5.188;2023-08-20T02:25:54;11.90;;;5.45;;
64907;SDS011;69061;52.236;5.188;2023-08-20T02:28:21;12.35;;;5.13;;
64907;SDS011;69061;52.236;5.188;2023-08-20T02:30:47;12.70;;;5.05;;
64907;SDS011;69061;52.236;5.188;2023-08-20T02:33:14;12.90;;;6.07;;
64907;SDS011;69061;52.236;5.188;2023-08-20T02:35:42;13.07;;;6.03;;
64907;SDS011;69061;52.236;5.188;2023-08-20T02:38:09;11.60;;;5.30;;
64907;SDS011;69061;52.236;5.188;2023-08-20T02:40:40;22.15;;;6.53;;
64907;SDS011;69061;52.236;5.188;2023-08-20T02:43:07;20.08;;;6.63;;
64907;SDS011;69061;52.236;5.188;2023-08-20T02:45:39;11.65;;;5.53;;
64907;SDS011;69061;52.236;5.188;2023-08-20T02:48:07;15.07;;;5.70;;
64907;SDS011;69061;52.236;5.188;2023-08-20T02:50:34;17.45;;;6.05;;
64907;SDS011;69061;52.236;5.188;2023-08-20T02:53:01;11.38;;;5.55;;
64907;SDS011;69061;52.236;5.188;2023-08-20T02:55:29;13.15;;;5.47;;
64907;SDS011;69061;52.236;5.188;2023-08-20T02:57:57;10.65;;;5.63;;
64907;SDS011;69061;52.236;5.188;2023-08-20T03:00:24;16.83;;;6.40;;
64907;SDS011;69061;52.236;5.188;2023-08-20T03:02:51;15.30;;;6.05;;
64907;SDS011;69061;52.236;5.188;2023-08-20T03:05:19;11.40;;;5.78;;
64907;SDS011;69061;52.236;5.188;2023-08-20T03:07:46;14.27;;;6.13;;
64907;SDS011;69061;52.236;5.188;2023-08-20T03:10:14;8.98;;;5.28;;
64907;SDS011;69061;52.236;5.188;2023-08-20T03:12:42;11.70;;;5.72;;
64907;SDS011;69061;52.236;5.188;2023-08-20T03:15:10;10.60;;;5.85;;
64907;SDS011;69061;52.236;5.188;2023-08-20T03:17:36;12.43;;;5.70;;
64907;SDS011;69061;52.236;5.188;2023-08-20T03:20:04;11.98;;;5.00;;
64907;SDS011;69061;52.236;5.188;2023-08-20T03:22:32;16.10;;;6.28;;
64907;SDS011;69061;52.236;5.188;2023-08-20T03:24:59;13.25;;;5.40;;
64907;SDS011;69061;52.236;5.188;2023-08-20T03:27:26;14.70;;;5.85;;
64907;SDS011;69061;52.236;5.188;2023-08-20T03:29:54;13.38;;;5.60;;
64907;SDS011;69061;52.236;5.188;2023-08-20T03:32:21;15.70;;;5.53;;
64907;SDS011;69061;52.236;5.188;2023-08-20T03:34:48;12.30;;;5.15;;
64907;SDS011;69061;52.236;5.188;2023-08-20T03:37:15;14.88;;;5.07;;
64907;SDS011;69061;52.236;5.188;2023-08-20T03:39:42;10.63;;;4.82;;
64907;SDS011;69061;52.236;5.188;2023-08-20T03:42:09;15.35;;;5.32;;
64907;SDS011;69061;52.236;5.188;2023-08-20T03:44:36;12.38;;;5.68;;
64907;SDS011;69061;52.236;5.188;2023-08-20T03:47:04;15.48;;;5.60;;
64907;SDS011;69061;52.236;5.188;2023-08-20T03:49:31;10.73;;;5.65;;
64907;SDS011;69061;52.236;5.188;2023-08-20T03:51:58;14.02;;;5.70;;
64907;SDS011;69061;52.236;5.188;2023-08-20T03:54:26;14.10;;;5.55;;
64907;SDS011;69061;52.236;5.188;2023-08-20T03:56:54;11.68;;;5.57;;
64907;SDS011;69061;52.236;5.188;2023-08-20T03:59:21;12.82;;;5.78;;
64907;SDS011;69061;52.236;5.188;2023-08-20T04:01:48;14.32;;;5.45;;
64907;SDS011;69061;52.236;5.188;2023-08-20T04:04:16;13.10;;;5.63;;
64907;SDS011;69061;52.236;5.188;2023-08-20T04:06:43;16.20;;;6.30;;
64907;SDS011;69061;52.236;5.188;2023-08-20T04:09:11;14.25;;;6.38;;
64907;SDS011;69061;52.236;5.188;2023-08-20T04:11:37;16.08;;;5.35;;
64907;SDS011;69061;52.236;5.188;2023-08-20T04:14:04;11.63;;;5.88;;
64907;SDS011;69061;52.236;5.188;2023-08-20T04:16:31;14.23;;;6.05;;
64907;SDS011;69061;52.236;5.188;2023-08-20T04:18:57;10.15;;;5.10;;
64907;SDS011;69061;52.236;5.188;2023-08-20T04:21:26;14.20;;;6.13;;
64907;SDS011;69061;52.236;5.188;2023-08-20T04:23:53;10.95;;;5.32;;
64907;SDS011;69061;52.236;5.188;2023-08-20T04:26:20;18.27;;;5.63;;
64907;SDS011;69061;52.236;5.188;2023-08-20T04:28:46;12.70;;;5.65;;
64907;SDS011;69061;52.236;5.188;2023-08-20T04:31:13;8.60;;;5.15;;
64907;SDS011;69061;52.236;5.188;2023-08-20T04:33:40;12.65;;;6.40;;
64907;SDS011;69061;52.236;5.188;2023-08-20T04:36:06;10.30;;;5.65;;
64907;SDS011;69061;52.236;5.188;2023-08-20T04:38:35;15.75;;;5.68;;
64907;SDS011;69061;52.236;5.188;2023-08-20T04:41:02;10.45;;;6.00;;
64907;SDS011;69061;52.236;5.188;2023-08-20T04:43:28;11.93;;;5.10;;
64907;SDS011;69061;52.236;5.188;2023-08-20T04:45:55;11.07;;;5.10;;
64907;SDS011;69061;52.236;5.188;2023-08-20T04:48:22;10.93;;;5.55;;
64907;SDS011;69061;52.236;5.188;2023-08-20T04:50:49;15.45;;;5.78;;
64907;SDS011;69061;52.236;5.188;2023-08-20T04:53:16;11.90;;;5.68;;
64907;SDS011;69061;52.236;5.188;2023-08-20T04:55:44;9.35;;;5.07;;
64907;SDS011;69061;52.236;5.188;2023-08-20T04:58:11;12.95;;;5.78;;
64907;SDS011;69061;52.236;5.188;2023-08-20T05:00:37;13.10;;;5.82;;
64907;SDS011;69061;52.236;5.188;2023-08-20T05:03:04;14.63;;;5.70;;
64907;SDS011;69061;52.236;5.188;2023-08-20T05:05:31;15.85;;;5.80;;
64907;SDS011;69061;52.236;5.188;2023-08-20T05:07:58;13.60;;;5.82;;
64907;SDS011;69061;52.236;5.188;2023-08-20T05:10:25;14.05;;;5.30;;
64907;SDS011;69061;52.236;5.188;2023-08-20T05:12:54;16.95;;;6.20;;
64907;SDS011;69061;52.236;5.188;2023-08-20T05:15:20;15.30;;;6.05;;
64907;SDS011;69061;52.236;5.188;2023-08-20T05:17:47;14.93;;;5.40;;
64907;SDS011;69061;52.236;5.188;2023-08-20T05:20:14;13.95;;;5.80;;
64907;SDS011;69061;52.236;5.188;2023-08-20T05:22:42;13.45;;;6.25;;
64907;SDS011;69061;52.236;5.188;2023-08-20T05:25:08;11.27;;;6.13;;
64907;SDS011;69061;52.236;5.188;2023-08-20T05:27:35;10.38;;;5.63;;
64907;SDS011;69061;52.236;5.188;2023-08-20T05:30:05;12.40;;;5.68;;
64907;SDS011;69061;52.236;5.188;2023-08-20T05:32:34;10.35;;;6.30;;
64907;SDS011;69061;52.236;5.188;2023-08-20T05:35:01;14.57;;;6.53;;
64907;SDS011;69061;52.236;5.188;2023-08-20T05:37:29;14.02;;;5.90;;
64907;SDS011;69061;52.236;5.188;2023-08-20T05:39:56;17.42;;;5.28;;
64907;SDS011;69061;52.236;5.188;2023-08-20T05:42:23;16.23;;;5.45;;
64907;SDS011;69061;52.236;5.188;2023-08-20T05:44:50;14.88;;;5.50;;
64907;SDS011;69061;52.236;5.188;2023-08-20T05:47:18;13.38;;;5.63;;
64907;SDS011;69061;52.236;5.188;2023-08-20T05:49:44;16.98;;;5.57;;
64907;SDS011;69061;52.236;5.188;2023-08-20T05:52:11;12.30;;;5.60;;
64907;SDS011;69061;52.236;5.188;2023-08-20T05:54:38;10.93;;;5.65;;
64907;SDS011;69061;52.236;5.188;2023-08-20T05:57:05;13.93;;;5.55;;
64907;SDS011;69061;52.236;5.188;2023-08-20T05:59:32;12.60;;;5.10;;
64907;SDS011;69061;52.236;5.188;2023-08-20T06:02:00;10.60;;;5.35;;
64907;SDS011;69061;52.236;5.188;2023-08-20T06:04:29;18.30;;;5.57;;
64907;SDS011;69061;52.236;5.188;2023-08-20T06:06:56;18.38;;;6.97;;
64907;SDS011;69061;52.236;5.188;2023-08-20T06:09:23;14.10;;;5.30;;
64907;SDS011;69061;52.236;5.188;2023-08-20T06:11:50;12.23;;;5.05;;
64907;SDS011;69061;52.236;5.188;2023-08-20T06:14:17;14.02;;;5.85;;
64907;SDS011;69061;52.236;5.188;2023-08-20T06:16:43;18.23;;;5.13;;
64907;SDS011;69061;52.236;5.188;2023-08-20T06:19:10;11.93;;;5.57;;
64907;SDS011;69061;52.236;5.188;2023-08-20T06:21:38;14.98;;;5.03;;
64907;SDS011;69061;52.236;5.188;2023-08-20T06:24:05;14.00;;;5.80;;
64907;SDS011;69061;52.236;5.188;2023-08-20T06:26:33;14.98;;;6.30;;
64907;SDS011;69061;52.236;5.188;2023-08-20T06:29:00;20.90;;;7.03;;
64907;SDS011;69061;52.236;5.188;2023-08-20T06:31:27;23.45;;;7.22;;
64907;SDS011;69061;52.236;5.188;2023-08-20T06:33:54;19.52;;;6.38;;
64907;SDS011;69061;52.236;5.188;2023-08-20T06:36:21;33.47;;;8.52;;
64907;SDS011;69061;52.236;5.188;2023-08-20T06:38:52;31.67;;;7.22;;
64907;SDS011;69061;52.236;5.188;2023-08-20T06:41:18;38.53;;;8.27;;
64907;SDS011;69061;52.236;5.188;2023-08-20T06:43:45;32.65;;;7.43;;
64907;SDS011;69061;52.236;5.188;2023-08-20T06:46:12;41.90;;;9.30;;
64907;SDS011;69061;52.236;5.188;2023-08-20T06:48:39;18.30;;;6.85;;
64907;SDS011;69061;52.236;5.188;2023-08-20T06:51:10;22.10;;;6.45;;
64907;SDS011;69061;52.236;5.188;2023-08-20T06:53:38;19.35;;;5.50;;
64907;SDS011;69061;52.236;5.188;2023-08-20T06:56:07;20.00;;;5.72;;
64907;SDS011;69061;52.236;5.188;2023-08-20T06:58:35;19.13;;;6.45;;
64907;SDS011;69061;52.236;5.188;2023-08-20T07:01:02;17.42;;;5.55;;
64907;SDS011;69061;52.236;5.188;2023-08-20T07:03:33;16.25;;;5.63;;
64907;SDS011;69061;52.236;5.188;2023-08-20T07:06:01;15.77;;;5.63;;
64907;SDS011;69061;52.236;5.188;2023-08-20T07:08:28;15.82;;;5.38;;
64907;SDS011;69061;52.236;5.188;2023-08-20T07:10:55;14.10;;;4.72;;
64907;SDS011;69061;52.236;5.188;2023-08-20T07:13:23;13.15;;;5.72;;
64907;SDS011;69061;52.236;5.188;2023-08-20T07:15:50;14.50;;;4.93;;
64907;SDS011;69061;52.236;5.188;2023-08-20T07:18:17;14.35;;;5.15;;
64907;SDS011;69061;52.236;5.188;2023-08-20T07:20:44;18.00;;;5.75;;
64907;SDS011;69061;52.236;5.188;2023-08-20T07:23:12;12.50;;;4.85;;
64907;SDS011;69061;52.236;5.188;2023-08-20T07:25:39;17.92;;;5.93;;
64907;SDS011;69061;52.236;5.188;2023-08-20T07:28:07;16.70;;;5.97;;
64907;SDS011;69061;52.236;5.188;2023-08-20T07:30:36;19.15;;;5.38;;
64907;SDS011;69061;52.236;5.188;2023-08-20T07:33:03;18.67;;;5.00;;
64907;SDS011;69061;52.236;5.188;2023-08-20T07:35:30;18.20;;;5.35;;
64907;SDS011;69061;52.236;5.188;2023-08-20T07:37:57;13.32;;;4.63;;
64907;SDS011;69061;52.236;5.188;2023-08-20T07:40:24;17.33;;;5.05;;
64907;SDS011;69061;52.236;5.188;2023-08-20T07:42:51;15.13;;;4.80;;
64907;SDS011;69061;52.236;5.188;2023-08-20T07:45:18;17.73;;;4.90;;
64907;SDS011;69061;52.236;5.188;2023-08-20T07:47:46;12.18;;;4.65;;
64907;SDS011;69061;52.236;5.188;2023-08-20T07:50:13;17.60;;;6.47;;
64907;SDS011;69061;52.236;5.188;2023-08-20T07:52:39;14.60;;;4.97;;
64907;SDS011;69061;52.236;5.188;2023-08-20T07:55:07;13.93;;;4.55;;
64907;SDS011;69061;52.236;5.188;2023-08-20T07:57:34;12.00;;;4.70;;
64907;SDS011;69061;52.236;5.188;2023-08-20T08:00:01;17.15;;;4.78;;
64907;SDS011;69061;52.236;5.188;2023-08-20T08:02:29;16.38;;;5.20;;
64907;SDS011;69061;52.236;5.188;2023-08-20T08:04:58;17.17;;;4.32;;
64907;SDS011;69061;52.236;5.188;2023-08-20T08:07:24;16.02;;;5.20;;
64907;SDS011;69061;52.236;5.188;2023-08-20T08:09:52;20.90;;;5.57;;
64907;SDS011;69061;52.236;5.188;2023-08-20T08:12:21;16.15;;;5.50;;
64907;SDS011;69061;52.236;5.188;2023-08-20T08:14:48;18.88;;;6.22;;
64907;SDS011;69061;52.236;5.188;2023-08-20T08:17:15;35.45;;;8.75;;
64907;SDS011;69061;52.236;5.188;2023-08-20T08:19:41;27.35;;;6.90;;
64907;SDS011;69061;52.236;5.188;2023-08-20T08:22:09;24.40;;;7.15;;
64907;SDS011;69061;52.236;5.188;2023-08-20T08:24:36;19.80;;;4.53;;
64907;SDS011;69061;52.236;5.188;2023-08-20T08:27:03;15.25;;;5.07;;
64907;SDS011;69061;52.236;5.188;2023-08-20T08:29:30;20.58;;;5.63;;
64907;SDS011;69061;52.236;5.188;2023-08-20T08:31:57;20.30;;;6.05;;
64907;SDS011;69061;52.236;5.188;2023-08-20T08:34:24;19.85;;;6.22;;
64907;SDS011;69061;52.236;5.188;2023-08-20T08:36:51;16.77;;;5.65;;
64907;SDS011;69061;52.236;5.188;2023-08-20T08:39:19;17.38;;;5.00;;
64907;SDS011;69061;52.236;5.188;2023-08-20T08:41:47;16.67;;;6.30;;
64907;SDS011;69061;52.236;5.188;2023-08-20T08:44:17;17.05;;;4.95;;
64907;SDS011;69061;52.236;5.188;2023-08-20T08:46:44;15.75;;;4.72;;
64907;SDS011;69061;52.236;5.188;2023-08-20T08:49:15;14.10;;;4.93;;
64907;SDS011;69061;52.236;5.188;2023-08-20T08:51:42;11.73;;;4.78;;
64907;SDS011;69061;52.236;5.188;2023-08-20T08:54:11;14.57;;;4.20;;
64907;SDS011;69061;52.236;5.188;2023-08-20T08:56:41;12.07;;;4.38;;
64907;SDS011;69061;52.236;5.188;2023-08-20T08:59:08;9.48;;;3.90;;
64907;SDS011;69061;52.236;5.188;2023-08-20T09:01:37;14.30;;;4.10;;
64907;SDS011;69061;52.236;5.188;2023-08-20T09:04:05;11.70;;;4.03;;
64907;SDS011;69061;52.236;5.188;2023-08-20T09:06:43;13.50;;;4.72;;
64907;SDS011;69061;52.236;5.188;2023-08-20T09:09:13;9.10;;;4.20;;
64907;SDS011;69061;52.236;5.188;2023-08-20T09:11:43;14.68;;;4.25;;
64907;SDS011;69061;52.236;5.188;2023-08-20T09:14:18;13.00;;;4.35;;
64907;SDS011;69061;52.236;5.188;2023-08-20T09:16:47;18.23;;;4.75;;
64907;SDS011;69061;52.236;5.188;2023-08-20T09:19:20;12.50;;;4.38;;
64907;SDS011;69061;52.236;5.188;2023-08-20T09:21:47;16.77;;;4.38;;
64907;SDS011;69061;52.236;5.188;2023-08-20T09:24:18;10.80;;;4.72;;
64907;SDS011;69061;52.236;5.188;2023-08-20T09:26:57;13.85;;;4.40;;
64907;SDS011;69061;52.236;5.188;2023-08-20T09:29:25;7.90;;;3.72;;
64907;SDS011;69061;52.236;5.188;2023-08-20T09:31:52;12.63;;;3.92;;
64907;SDS011;69061;52.236;5.188;2023-08-20T09:34:34;9.32;;;4.10;;
64907;SDS011;69061;52.236;5.188;2023-08-20T09:37:02;9.48;;;3.83;;
64907;SDS011;69061;52.236;5.188;2023-08-20T09:39:29;10.85;;;4.53;;
64907;SDS011;69061;52.236;5.188;2023-08-20T09:41:57;13.63;;;4.75;;
64907;SDS011;69061;52.236;5.188;2023-08-20T09:44:30;13.55;;;4.30;;
64907;SDS011;69061;52.236;5.188;2023-08-20T09:47:01;10.50;;;3.83;;
64907;SDS011;69061;52.236;5.188;2023-08-20T09:49:29;16.50;;;5.47;;
64907;SDS011;69061;52.236;5.188;2023-08-20T09:51:58;16.25;;;5.03;;
64907;SDS011;69061;52.236;5.188;2023-08-20T09:54:28;14.10;;;4.35;;
64907;SDS011;69061;52.236;5.188;2023-08-20T09:57:02;10.50;;;4.53;;
64907;SDS011;69061;52.236;5.188;2023-08-20T09:59:38;7.13;;;3.60;;
64907;SDS011;69061;52.236;5.188;2023-08-20T10:02:07;13.75;;;4.22;;
64907;SDS011;69061;52.236;5.188;2023-08-20T10:04:37;14.75;;;3.83;;
64907;SDS011;69061;52.236;5.188;2023-08-20T10:07:05;11.15;;;3.65;;
64907;SDS011;69061;52.236;5.188;2023-08-20T10:09:32;11.13;;;3.80;;
64907;SDS011;69061;52.236;5.188;2023-08-20T10:12:01;9.45;;;3.83;;
64907;SDS011;69061;52.236;5.188;2023-08-20T10:14:28;8.80;;;3.60;;
64907;SDS011;69061;52.236;5.188;2023-08-20T10:16:55;8.70;;;3.67;;
64907;SDS011;69061;52.236;5.188;2023-08-20T10:19:23;10.00;;;3.28;;
64907;SDS011;69061;52.236;5.188;2023-08-20T10:21:52;9.45;;;3.38;;
64907;SDS011;69061;52.236;5.188;2023-08-20T10:24:19;9.23;;;3.47;;
64907;SDS011;69061;52.236;5.188;2023-08-20T10:26:46;11.20;;;3.50;;
64907;SDS011;69061;52.236;5.188;2023-08-20T10:32:05;9.10;;;3.45;;
64907;SDS011;69061;52.236;5.188;2023-08-20T10:34:33;9.70;;;3.45;;
64907;SDS011;69061;52.236;5.188;2023-08-20T10:37:02;7.45;;;3.20;;
64907;SDS011;69061;52.236;5.188;2023-08-20T10:39:30;13.98;;;4.00;;
64907;SDS011;69061;52.236;5.188;2023-08-20T10:42:10;8.50;;;3.38;;
64907;SDS011;69061;52.236;5.188;2023-08-20T10:44:58;9.57;;;3.63;;
64907;SDS011;69061;52.236;5.188;2023-08-20T10:47:35;10.93;;;3.95;;
64907;SDS011;69061;52.236;5.188;2023-08-20T10:50:03;11.95;;;3.78;;
64907;SDS011;69061;52.236;5.188;2023-08-20T10:52:32;12.40;;;4.15;;
64907;SDS011;69061;52.236;5.188;2023-08-20T10:55:04;10.90;;;3.80;;
64907;SDS011;69061;52.236;5.188;2023-08-20T10:57:33;8.63;;;3.47;;
64907;SDS011;69061;52.236;5.188;2023-08-20T11:00:03;11.57;;;4.00;;
64907;SDS011;69061;52.236;5.188;2023-08-20T11:02:36;8.20;;;3.17;;
64907;SDS011;69061;52.236;5.188;2023-08-20T11:05:03;10.20;;;3.92;;
64907;SDS011;69061;52.236;5.188;2023-08-20T11:07:42;8.48;;;3.10;;
64907;SDS011;69061;52.236;5.188;2023-08-20T11:10:12;8.98;;;3.47;;
64907;SDS011;69061;52.236;5.188;2023-08-20T11:12:39;12.32;;;3.28;;
64907;SDS011;69061;52.236;5.188;2023-08-20T11:15:09;9.75;;;3.58;;
64907;SDS011;69061;52.236;5.188;2023-08-20T11:17:41;8.88;;;3.53;;
64907;SDS011;69061;52.236;5.188;2023-08-20T11:20:09;16.02;;;4.28;;
64907;SDS011;69061;52.236;5.188;2023-08-20T11:22:38;8.90;;;3.38;;
64907;SDS011;69061;52.236;5.188;2023-08-20T11:25:05;11.52;;;4.13;;
64907;SDS011;69061;52.236;5.188;2023-08-20T11:27:36;8.75;;;3.30;;
64907;SDS011;69061;52.236;5.188;2023-08-20T11:30:07;13.00;;;3.88;;
64907;SDS011;69061;52.236;5.188;2023-08-20T11:32:37;10.35;;;3.42;;
64907;SDS011;69061;52.236;5.188;2023-08-20T11:35:04;10.88;;;3.58;;
64907;SDS011;69061;52.236;5.188;2023-08-20T11:37:32;10.52;;;3.70;;
64907;SDS011;69061;52.236;5.188;2023-08-20T11:39:59;12.10;;;3.65;;
64907;SDS011;69061;52.236;5.188;2023-08-20T11:42:28;10.68;;;3.60;;
64907;SDS011;69061;52.236;5.188;2023-08-20T11:44:58;11.95;;;3.90;;
64907;SDS011;69061;52.236;5.188;2023-08-20T11:47:27;12.15;;;4.20;;
64907;SDS011;69061;52.236;5.188;2023-08-20T11:50:03;11.20;;;4.10;;
64907;SDS011;69061;52.236;5.188;2023-08-20T11:52:32;11.30;;;3.70;;
64907;SDS011;69061;52.236;5.188;2023-08-20T11:54:59;11.65;;;3.72;;
64907;SDS011;69061;52.236;5.188;2023-08-20T11:57:26;9.93;;;3.95;;
64907;SDS011;69061;52.236;5.188;2023-08-20T11:59:55;11.10;;;3.80;;
64907;SDS011;69061;52.236;5.188;2023-08-20T12:02:27;9.70;;;3.88;;
64907;SDS011;69061;52.236;5.188;2023-08-20T12:04:55;12.30;;;4.00;;
64907;SDS011;69061;52.236;5.188;2023-08-20T12:07:24;9.75;;;3.72;;
64907;SDS011;69061;52.236;5.188;2023-08-20T12:09:54;12.68;;;4.00;;
64907;SDS011;69061;52.236;5.188;2023-08-20T12:12:21;12.82;;;3.80;;
64907;SDS011;69061;52.236;5.188;2023-08-20T12:14:49;10.63;;;3.58;;
64907;SDS011;69061;52.236;5.188;2023-08-20T12:17:17;11.52;;;3.75;;
64907;SDS011;69061;52.236;5.188;2023-08-20T12:19:47;12.32;;;4.32;;
64907;SDS011;69061;52.236;5.188;2023-08-20T12:22:14;13.63;;;3.78;;
64907;SDS011;69061;52.236;5.188;2023-08-20T12:24:41;9.40;;;3.45;;
64907;SDS011;69061;52.236;5.188;2023-08-20T12:27:07;9.40;;;3.55;;
64907;SDS011;69061;52.236;5.188;2023-08-20T12:29:34;14.90;;;3.92;;
64907;SDS011;69061;52.236;5.188;2023-08-20T12:32:01;9.20;;;3.53;;
64907;SDS011;69061;52.236;5.188;2023-08-20T12:34:32;10.73;;;4.20;;
64907;SDS011;69061;52.236;5.188;2023-08-20T12:37:00;8.48;;;3.50;;
64907;SDS011;69061;52.236;5.188;2023-08-20T12:39:27;10.30;;;3.95;;
64907;SDS011;69061;52.236;5.188;2023-08-20T12:41:54;10.40;;;3.78;;
64907;SDS011;69061;52.236;5.188;2023-08-20T12:44:20;12.98;;;4.05;;
64907;SDS011;69061;52.236;5.188;2023-08-20T12:46:47;7.88;;;3.25;;
64907;SDS011;69061;52.236;5.188;2023-08-20T12:49:13;9.02;;;3.78;;
64907;SDS011;69061;52.236;5.188;2023-08-20T12:51:41;10.95;;;3.38;;
64907;SDS011;69061;52.236;5.188;2023-08-20T12:54:09;8.68;;;3.28;;
64907;SDS011;69061;52.236;5.188;2023-08-20T12:56:36;8.90;;;3.30;;
64907;SDS011;69061;52.236;5.188;2023-08-20T12:59:03;10.52;;;4.13;;
64907;SDS011;69061;52.236;5.188;2023-08-20T13:01:30;10.30;;;3.45;;
64907;SDS011;69061;52.236;5.188;2023-08-20T13:03:57;8.07;;;3.38;;
64907;SDS011;69061;52.236;5.188;2023-08-20T13:06:25;9.48;;;3.63;;
64907;SDS011;69061;52.236;5.188;2023-08-20T13:08:52;8.60;;;3.10;;
64907;SDS011;69061;52.236;5.188;2023-08-20T13:11:21;8.95;;;3.15;;
64907;SDS011;69061;52.236;5.188;2023-08-20T13:13:51;9.85;;;5.53;;
64907;SDS011;69061;52.236;5.188;2023-08-20T13:16:19;11.20;;;5.18;;
64907;SDS011;69061;52.236;5.188;2023-08-20T13:18:46;8.52;;;4.80;;
64907;SDS011;69061;52.236;5.188;2023-08-20T13:21:13;13.35;;;3.53;;
64907;SDS011;69061;52.236;5.188;2023-08-20T13:23:41;7.90;;;3.40;;
64907;SDS011;69061;52.236;5.188;2023-08-20T13:26:10;8.15;;;3.70;;
64907;SDS011;69061;52.236;5.188;2023-08-20T13:28:38;8.07;;;3.20;;
64907;SDS011;69061;52.236;5.188;2023-08-20T13:31:05;8.43;;;3.22;;
64907;SDS011;69061;52.236;5.188;2023-08-20T13:33:32;7.78;;;3.38;;
64907;SDS011;69061;52.236;5.188;2023-08-20T13:35:59;10.10;;;3.60;;
64907;SDS011;69061;52.236;5.188;2023-08-20T13:38:26;8.20;;;3.20;;
64907;SDS011;69061;52.236;5.188;2023-08-20T13:40:52;11.23;;;3.47;;
64907;SDS011;69061;52.236;5.188;2023-08-20T13:43:21;8.40;;;2.78;;
64907;SDS011;69061;52.236;5.188;2023-08-20T13:45:49;8.32;;;3.10;;
64907;SDS011;69061;52.236;5.188;2023-08-20T13:48:16;6.90;;;2.95;;
64907;SDS011;69061;52.236;5.188;2023-08-20T13:50:43;5.38;;;3.05;;
64907;SDS011;69061;52.236;5.188;2023-08-20T13:53:10;7.85;;;3.75;;
64907;SDS011;69061;52.236;5.188;2023-08-20T13:55:37;9.27;;;3.45;;
64907;SDS011;69061;52.236;5.188;2023-08-20T13:58:04;7.10;;;3.08;;
64907;SDS011;69061;52.236;5.188;2023-08-20T14:00:32;7.88;;;2.83;;
64907;SDS011;69061;52.236;5.188;2023-08-20T14:03:00;11.27;;;4.35;;
64907;SDS011;69061;52.236;5.188;2023-08-20T14:05:27;11.15;;;3.97;;
64907;SDS011;69061;52.236;5.188;2023-08-20T14:07:54;11.70;;;5.45;;
64907;SDS011;69061;52.236;5.188;2023-08-20T14:10:21;8.48;;;4.20;;
64907;SDS011;69061;52.236;5.188;2023-08-20T14:12:48;10.13;;;3.50;;
64907;SDS011;69061;52.236;5.188;2023-08-20T14:15:14;8.93;;;3.47;;
64907;SDS011;69061;52.236;5.188;2023-08-20T14:17:43;8.40;;;3.20;;
64907;SDS011;69061;52.236;5.188;2023-08-20T14:20:12;14.75;;;5.97;;
64907;SDS011;69061;52.236;5.188;2023-08-20T14:22:39;18.52;;;6.72;;
64907;SDS011;69061;52.236;5.188;2023-08-20T14:25:07;11.85;;;4.40;;
64907;SDS011;69061;52.236;5.188;2023-08-20T14:27:34;6.90;;;3.47;;
64907;SDS011;69061;52.236;5.188;2023-08-20T14:30:01;13.25;;;4.18;;
64907;SDS011;69061;52.236;5.188;2023-08-20T14:32:29;11.57;;;4.93;;
64907;SDS011;69061;52.236;5.188;2023-08-20T14:34:56;12.32;;;5.05;;
64907;SDS011;69061;52.236;5.188;2023-08-20T14:37:25;8.40;;;3.55;;
64907;SDS011;69061;52.236;5.188;2023-08-20T14:39:53;12.43;;;4.68;;
64907;SDS011;69061;52.236;5.188;2023-08-20T14:42:20;8.20;;;3.47;;
64907;SDS011;69061;52.236;5.188;2023-08-20T14:44:47;7.50;;;3.05;;